»·PEaware :: N517GA KBAM-KBAB

N517GA :: KBAM-KBAB

FLIGHT INFORMATION

Flight Status: Arrived
Operator: Privately registered:
United States
More flights under this callsign
Pilot: John H. (7647)
Aircraft: DEHAVILLAND DH-6 TWIN OTTER
(DHC6)
More flights by this aircraft type
Origin: KBAM Battle Mountain
United States
Destination: KBAB Beale AFB
United States
More flights between these airports :: More routes between these airports
Route: BAM LLC FMG RANGO ZALNO ZUTUK ZEGSO ZAPUX
File this flight plan on PilotEdge
Remarks:
Altitude:
(Current/Filed)
10,500ft
Speed:
(Current/Filed)
145kts
Departed: 10-Jun-16 12:23 PM
Arrived: 10-Jun-16 02:22 PM
Distance/Time
Traveled:
228nm/1:59
Distance/Time
To Go:
Arrived

Flight Plot

Page will automatically refresh every two minutes.


Map Options




Map Legend


Flown Route
Filed Route
Departure Airport
Arrival Airport
Navaid (VOR, NDB)
Fix

Horizontal Profiles

Position Reports

Time Latitude Longitude Heading Altitude Ground
Speed
10-Jun-16 12:18 40.606844 -116.865276 228 4538ft 0kts
10-Jun-16 12:19 40.606844 -116.865276 228 4538ft 0kts
10-Jun-16 12:20 40.602163 -116.872135 232 4618ft 86kts
10-Jun-16 12:21 40.585290 -116.898261 233 5577ft 102kts
10-Jun-16 12:22 40.568395 -116.927579 253 6590ft 98kts
10-Jun-16 12:23 40.559304 -116.960932 255 7542ft 96kts
10-Jun-16 12:24 40.550640 -116.993732 254 8424ft 94kts
10-Jun-16 12:25 40.542231 -117.025864 253 9235ft 92kts
10-Jun-16 12:26 40.533929 -117.057660 252 9986ft 91kts
10-Jun-16 12:27 40.525485 -117.089968 251 10510ft 104kts
10-Jun-16 12:28 40.515577 -117.126964 250 10509ft 108kts
10-Jun-16 12:29 40.504946 -117.168184 251 10512ft 135kts
10-Jun-16 12:30 40.492374 -117.216155 251 10508ft 140kts
10-Jun-16 12:31 40.479575 -117.264844 251 10508ft 141kts
10-Jun-16 12:32 40.466740 -117.313564 251 10507ft 141kts
10-Jun-16 12:33 40.453881 -117.362273 251 10507ft 141kts
10-Jun-16 12:34 40.440995 -117.410985 251 10507ft 141kts
10-Jun-16 12:35 40.428083 -117.459702 251 10507ft 141kts
10-Jun-16 12:36 40.415190 -117.508251 251 10506ft 141kts
10-Jun-16 12:37 40.402237 -117.556929 251 10506ft 141kts
10-Jun-16 12:38 40.389281 -117.605526 251 10506ft 141kts
10-Jun-16 12:39 40.376339 -117.653990 250 10508ft 141kts
10-Jun-16 12:40 40.363627 -117.702385 250 10510ft 141kts
10-Jun-16 12:41 40.350590 -117.751213 250 10509ft 141kts
10-Jun-16 12:42 40.337503 -117.799967 250 10509ft 141kts
10-Jun-16 12:43 40.326609 -117.840447 250 10509ft 141kts
10-Jun-16 12:44 40.311249 -117.897322 251 10504ft 141kts
10-Jun-16 12:45 40.300371 -117.938053 245 10500ft 144kts
10-Jun-16 12:46 40.284629 -117.995814 245 10495ft 144kts
10-Jun-16 12:47 40.273458 -118.036941 246 10492ft 143kts
10-Jun-16 12:48 40.260177 -118.085806 246 10489ft 142kts
10-Jun-16 12:49 40.246902 -118.134595 246 10489ft 141kts
10-Jun-16 12:50 40.233681 -118.183070 246 10488ft 141kts
10-Jun-16 12:51 40.220410 -118.231606 246 10489ft 141kts
10-Jun-16 12:52 40.207130 -118.280095 246 10489ft 141kts
10-Jun-16 12:53 40.193831 -118.328558 246 10488ft 141kts
10-Jun-16 12:54 40.180631 -118.376617 246 10488ft 139kts
10-Jun-16 12:55 40.167512 -118.424244 245 10487ft 137kts
10-Jun-16 12:56 40.154666 -118.470817 245 10487ft 135kts
10-Jun-16 12:57 40.141949 -118.516800 245 10505ft 134kts
10-Jun-16 12:58 40.129325 -118.562382 244 10504ft 132kts
10-Jun-16 12:59 40.111104 -118.602774 232 10504ft 129kts
10-Jun-16 13:00 40.090494 -118.641203 232 10502ft 129kts
10-Jun-16 13:01 40.069993 -118.679445 232 10507ft 129kts
10-Jun-16 13:02 40.049238 -118.717841 232 10507ft 129kts
10-Jun-16 13:03 40.028309 -118.756334 231 10507ft 129kts
10-Jun-16 13:04 40.007467 -118.794585 232 10506ft 129kts
10-Jun-16 13:05 39.986573 -118.832873 231 10507ft 129kts
10-Jun-16 13:06 39.965627 -118.871194 231 10505ft 129kts
10-Jun-16 13:07 39.944766 -118.909314 231 10505ft 129kts
10-Jun-16 13:08 39.923920 -118.947363 231 10506ft 129kts
10-Jun-16 13:09 39.902943 -118.985611 232 10505ft 129kts
10-Jun-16 13:10 39.882172 -119.023422 232 10512ft 130kts
10-Jun-16 13:11 39.861079 -119.061787 231 10514ft 130kts
10-Jun-16 13:12 39.840832 -119.098486 233 10510ft 130kts
10-Jun-16 13:13 39.819897 -119.136539 233 10512ft 128kts
10-Jun-16 13:14 39.799177 -119.174117 233 10521ft 128kts
10-Jun-16 13:15 39.778378 -119.211764 233 10529ft 128kts
10-Jun-16 13:16 39.757551 -119.249429 232 10537ft 128kts
10-Jun-16 13:17 39.736834 -119.286857 232 10545ft 127kts
10-Jun-16 13:18 39.716074 -119.324274 232 10547ft 127kts
10-Jun-16 13:19 39.695319 -119.361660 232 10546ft 127kts
10-Jun-16 13:20 39.674550 -119.399038 232 10544ft 127kts
10-Jun-16 13:21 39.653743 -119.436433 232 10544ft 127kts
10-Jun-16 13:22 39.632983 -119.473708 232 10544ft 127kts
10-Jun-16 13:23 39.612234 -119.510908 232 10543ft 127kts
10-Jun-16 13:24 39.591390 -119.548231 232 10546ft 127kts
10-Jun-16 13:25 39.570671 -119.585291 232 10547ft 127kts
10-Jun-16 13:26 39.549938 -119.622352 232 10547ft 127kts
10-Jun-16 13:27 39.531177 -119.660446 252 10553ft 131kts
10-Jun-16 13:28 39.522347 -119.706217 249 10548ft 131kts
10-Jun-16 13:29 39.513758 -119.752405 249 10546ft 132kts
10-Jun-16 13:30 39.505253 -119.798400 250 10555ft 131kts
10-Jun-16 13:31 39.496770 -119.844266 250 10542ft 132kts
10-Jun-16 13:32 39.488285 -119.890148 251 10526ft 130kts
10-Jun-16 13:33 39.479849 -119.935710 251 10542ft 129kts
10-Jun-16 13:34 39.471442 -119.980929 251 10559ft 129kts
10-Jun-16 13:35 39.463028 -120.026130 252 10574ft 129kts
10-Jun-16 13:36 39.454605 -120.071282 252 10586ft 129kts
10-Jun-16 13:37 39.446099 -120.116722 251 10596ft 129kts
10-Jun-16 13:38 39.437609 -120.161976 251 10604ft 130kts
10-Jun-16 13:39 39.429044 -120.207521 251 10612ft 130kts
10-Jun-16 13:40 39.420463 -120.253073 251 10618ft 130kts
10-Jun-16 13:41 39.411838 -120.298740 251 10624ft 130kts
10-Jun-16 13:42 39.403206 -120.344351 250 10631ft 130kts
10-Jun-16 13:43 39.394589 -120.389779 251 10637ft 130kts
10-Jun-16 13:44 39.385881 -120.435509 250 10644ft 130kts
10-Jun-16 13:45 39.377223 -120.481035 250 10651ft 131kts
10-Jun-16 13:46 39.368464 -120.526896 249 10652ft 131kts
10-Jun-16 13:47 39.359687 -120.572535 251 10652ft 131kts
10-Jun-16 13:48 39.350913 -120.618359 250 10650ft 131kts
10-Jun-16 13:49 39.342298 -120.663528 251 10656ft 131kts
10-Jun-16 13:50 39.333673 -120.709102 251 10657ft 131kts
10-Jun-16 13:51 39.324823 -120.755093 250 10647ft 132kts
10-Jun-16 13:52 39.315792 -120.801722 252 10632ft 134kts
10-Jun-16 13:53 39.306542 -120.849278 253 10498ft 138kts
10-Jun-16 13:54 39.297197 -120.897286 253 10485ft 138kts
10-Jun-16 13:55 39.289324 -120.937663 254 10472ft 140kts
10-Jun-16 13:56 39.278181 -120.994771 254 10499ft 141kts
10-Jun-16 13:57 39.270121 -121.035927 254 10499ft 142kts
10-Jun-16 13:58 39.260453 -121.085189 254 10499ft 142kts
10-Jun-16 13:59 39.230176 -121.110280 194 10498ft 151kts
10-Jun-16 14:00 39.188910 -121.116284 192 10498ft 152kts
10-Jun-16 14:01 39.147113 -121.121698 192 10490ft 152kts
10-Jun-16 14:02 39.105481 -121.127048 192 10483ft 152kts
10-Jun-16 14:03 39.064448 -121.135616 223 10470ft 144kts
10-Jun-16 14:04 39.034684 -121.169642 225 10471ft 143kts
10-Jun-16 14:05 39.005524 -121.204920 226 10470ft 143kts
10-Jun-16 14:06 38.977289 -121.239162 225 9613ft 140kts
10-Jun-16 14:07 38.949312 -121.273048 223 7482ft 139kts
10-Jun-16 14:08 38.921660 -121.306483 222 5220ft 138kts
10-Jun-16 14:09 38.909232 -121.346235 312 2731ft 151kts
10-Jun-16 14:10 38.943515 -121.358804 343 1671ft 96kts
10-Jun-16 14:11 38.966573 -121.367280 341 1675ft 84kts
10-Jun-16 14:12 38.987973 -121.375453 341 1686ft 84kts
10-Jun-16 14:13 39.010130 -121.383928 343 1669ft 80kts
10-Jun-16 14:14 39.030936 -121.391889 343 1668ft 77kts
10-Jun-16 14:15 39.052316 -121.400384 341 1514ft 90kts
10-Jun-16 14:16 39.078424 -121.411664 341 1028ft 106kts
10-Jun-16 14:17 39.101007 -121.421422 342 538ft 63kts
10-Jun-16 14:18 39.117404 -121.428548 341 250ft 65kts
10-Jun-16 14:19 39.127634 -121.435360 193 118ft 16kts
10-Jun-16 14:20 39.127142 -121.435372 160 118ft 0kts
10-Jun-16 14:21 39.127142 -121.435372 160 118ft 0kts
10-Jun-16 14:22 39.127142 -121.435372 160 118ft 0kts

Navigation Log

Ident Type
Flight plan parsing failed, navigation log unavailable